Grosse Ile, Michigan
Current Conditions -  °F | °C
As of 1:34 PM on Saturday 20 Dec 2014 (Local Time) from KONZ Reporting Station
Overcast Overcast  
Wind Chill: 30°   Ceiling: 2500
Heat Index: 30°   Visibility: 10mi
Dew Point: 21°   Wind: 0mph
Humidity: 69%   Direction: NA
Pressure: 30.26"   Gusts: NA
Location:  42.11°N, 83.16°W
Report Text: KONZ 201834Z AUTO 00000KT 10SM OVC025 M01/M06 A3026 RMK AO2
Loading
Personal Weather Stations






























Interactive Weather Map New forecast layout! Learn more

10-Day Weather Forecast

Advertisements
Track Severe Weather on mobile